Time;durP1;ratioP1;P1;durP2;ratioP2;P2;SDS_P1;SDS_P2;PMS_P1;PMS_P2;Temp;Humidity;BMP_temperature;BMP_pressure;BME280_temperature;BME280_humidity;BME280_pressure;Samples;Min_cycle;Max_cycle;Signal;HPM_P1;HPM_P2
2023/05/09 00:00:31;;;;;;;21.03;18.90;;;;;;;;;;4925740;29;20682;-66
2023/05/09 00:03:01;;;;;;;22.27;20.07;;;;;;;;;;4942747;29;20966;-66
2023/05/09 00:05:29;;;;;;;23.00;20.60;;;;;;;;;;4941867;29;20658;-66
2023/05/09 00:07:57;;;;;;;24.33;20.70;;;;;;;;;;4943055;29;20705;-67
2023/05/09 00:10:27;;;;;;;21.23;19.03;;;;;;;;;;4935987;29;20800;-66
2023/05/09 00:12:55;;;;;;;23.10;19.80;;;;;;;;;;4922986;29;20720;-66
2023/05/09 00:15:24;;;;;;;23.60;19.90;;;;;;;;;;4933803;29;21052;-66
2023/05/09 00:17:53;;;;;;;20.63;18.43;;;;;;;;;;4942439;29;20684;-66
2023/05/09 00:20:21;;;;;;;21.40;19.20;;;;;;;;;;4942796;29;20744;-67
2023/05/09 00:22:49;;;;;;;20.20;18.23;;;;;;;;;;4942501;29;20680;-66
2023/05/09 00:25:17;;;;;;;21.80;19.53;;;;;;;;;;4942284;29;20699;-66
2023/05/09 00:27:47;;;;;;;22.77;20.37;;;;;;;;;;4942416;29;20670;-65
2023/05/09 00:30:15;;;;;;;23.67;21.20;;;;;;;;;;4944925;29;20676;-67
2023/05/09 00:32:44;;;;;;;18.90;16.90;;;;;;;;;;4945614;29;20731;-66
2023/05/09 00:35:12;;;;;;;21.57;19.37;;;;;;;;;;4944836;29;20676;-67
2023/05/09 00:37:41;;;;;;;21.97;19.77;;;;;;;;;;4943699;29;20620;-66
2023/05/09 00:40:09;;;;;;;28.00;20.00;;;;;;;;;;4945824;29;20676;-66
2023/05/09 00:42:38;;;;;;;22.93;20.53;;;;;;;;;;4944882;29;21239;-66
2023/05/09 00:45:08;;;;;;;23.17;20.97;;;;;;;;;;4943838;29;20687;-65
2023/05/09 00:47:36;;;;;;;24.40;21.20;;;;;;;;;;4944709;29;20679;-67
2023/05/09 00:50:05;;;;;;;20.53;18.43;;;;;;;;;;4945378;29;20695;-67
2023/05/09 00:52:34;;;;;;;22.20;19.90;;;;;;;;;;4943443;29;20721;-66
2023/05/09 00:55:03;;;;;;;24.77;18.27;;;;;;;;;;4944366;29;21052;-67
2023/05/09 00:57:32;;;;;;;21.10;19.00;;;;;;;;;;4945315;29;20715;-66
2023/05/09 01:00:00;;;;;;;20.87;18.67;;;;;;;;;;4945200;29;20679;-67
2023/05/09 01:02:30;;;;;;;21.00;18.80;;;;;;;;;;4938005;29;21063;-65
2023/05/09 01:04:59;;;;;;;20.60;18.60;;;;;;;;;;4938862;29;20599;-65
2023/05/09 01:07:31;;;;;;;19.93;17.90;;;;;;;;;;4939781;29;21321;-65
2023/05/09 01:10:03;;;;;;;24.90;22.30;;;;;;;;;;4938917;29;20668;-65
2023/05/09 01:12:35;;;;;;;23.30;21.00;;;;;;;;;;4940185;29;20644;-65
2023/05/09 01:15:06;;;;;;;24.57;20.53;;;;;;;;;;4940334;29;20691;-65
2023/05/09 01:17:40;;;;;;;22.57;19.23;;;;;;;;;;4939553;29;20974;-65
2023/05/09 01:20:13;;;;;;;23.30;20.57;;;;;;;;;;4939334;29;20616;-65
2023/05/09 01:22:45;;;;;;;22.10;19.90;;;;;;;;;;4939651;29;20613;-65
2023/05/09 01:25:47;;;;;;;23.30;20.80;;;;;;;;;;4939157;29;21190;-65
2023/05/09 01:28:19;;;;;;;23.37;21.03;;;;;;;;;;4938757;29;20700;-66
2023/05/09 01:30:52;;;;;;;25.83;21.43;;;;;;;;;;4937552;29;20682;-66
2023/05/09 01:33:21;;;;;;;25.13;21.97;;;;;;;;;;4937752;29;20650;-65
2023/05/09 01:35:52;;;;;;;26.63;22.73;;;;;;;;;;4939086;29;20608;-66
2023/05/09 01:38:21;;;;;;;25.33;22.60;;;;;;;;;;4939281;29;20612;-66
2023/05/09 01:40:52;;;;;;;25.03;22.43;;;;;;;;;;4953978;29;20698;-66
2023/05/09 01:43:22;;;;;;;25.57;22.80;;;;;;;;;;4938968;29;20599;-66
2023/05/09 01:45:53;;;;;;;23.90;21.27;;;;;;;;;;4940056;29;20869;-66
2023/05/09 01:48:25;;;;;;;25.67;22.87;;;;;;;;;;4938854;29;20635;-66
2023/05/09 01:50:54;;;;;;;25.63;21.73;;;;;;;;;;4923382;29;21131;-66
2023/05/09 01:53:22;;;;;;;24.33;20.87;;;;;;;;;;4939258;29;20981;-66
2023/05/09 01:55:51;;;;;;;23.87;21.27;;;;;;;;;;4938801;29;20610;-66
2023/05/09 01:58:20;;;;;;;26.83;24.20;;;;;;;;;;4938854;29;20639;-66
2023/05/09 02:00:49;;;;;;;24.77;22.17;;;;;;;;;;4926758;29;20628;-63
2023/05/09 02:03:19;;;;;;;24.90;22.20;;;;;;;;;;4920346;29;20625;-64
2023/05/09 02:05:48;;;;;;;22.73;20.37;;;;;;;;;;4937338;29;20624;-63
2023/05/09 02:08:19;;;;;;;22.70;20.40;;;;;;;;;;4937850;29;20648;-63
2023/05/09 02:10:48;;;;;;;24.40;21.90;;;;;;;;;;4928974;29;20683;-63
2023/05/09 02:13:16;;;;;;;27.47;22.60;;;;;;;;;;4902725;29;20661;-62
2023/05/09 02:15:45;;;;;;;25.30;22.37;;;;;;;;;;4918053;29;20942;-62
2023/05/09 02:18:13;;;;;;;24.23;21.73;;;;;;;;;;4924244;29;20619;-63
2023/05/09 02:20:43;;;;;;;30.67;22.57;;;;;;;;;;4937707;29;20639;-63
2023/05/09 02:23:12;;;;;;;21.40;19.30;;;;;;;;;;4938549;29;21171;-62
2023/05/09 02:25:41;;;;;;;24.43;19.87;;;;;;;;;;4921272;29;20607;-62
2023/05/09 02:28:10;;;;;;;23.53;20.10;;;;;;;;;;4938291;29;20598;-62
2023/05/09 02:30:41;;;;;;;21.80;19.40;;;;;;;;;;4937177;29;20613;-63
2023/05/09 02:33:10;;;;;;;22.90;19.90;;;;;;;;;;4938125;29;20652;-62
2023/05/09 02:35:40;;;;;;;26.23;20.40;;;;;;;;;;4937795;29;20606;-63
2023/05/09 02:38:10;;;;;;;20.53;18.43;;;;;;;;;;4903917;29;20600;-64
2023/05/09 02:40:40;;;;;;;24.53;19.70;;;;;;;;;;4918922;29;20561;-64
2023/05/09 02:43:08;;;;;;;23.73;21.33;;;;;;;;;;4918801;29;20591;-64
2023/05/09 02:45:36;;;;;;;21.73;19.37;;;;;;;;;;4918685;29;21218;-64
2023/05/09 02:48:05;;;;;;;22.83;20.53;;;;;;;;;;4919231;29;20602;-63
2023/05/09 02:50:34;;;;;;;21.53;19.43;;;;;;;;;;4938197;29;20688;-64
2023/05/09 02:53:02;;;;;;;22.63;20.23;;;;;;;;;;4936638;29;20675;-64
2023/05/09 02:55:32;;;;;;;24.17;20.83;;;;;;;;;;4919814;29;21078;-64
2023/05/09 02:58:01;;;;;;;22.07;19.87;;;;;;;;;;4921277;29;20931;-65
2023/05/09 03:00:32;;;;;;;26.63;21.30;;;;;;;;;;4937665;29;20658;-64
2023/05/09 03:03:03;;;;;;;30.43;21.00;;;;;;;;;;4951488;29;20624;-65
2023/05/09 03:05:31;;;;;;;21.50;19.20;;;;;;;;;;4950757;29;20633;-64
2023/05/09 03:07:59;;;;;;;20.83;18.77;;;;;;;;;;4937788;29;20670;-63
2023/05/09 03:10:28;;;;;;;24.20;21.60;;;;;;;;;;4926704;29;20674;-64
2023/05/09 03:12:57;;;;;;;22.30;20.00;;;;;;;;;;4937068;29;20681;-64
2023/05/09 03:15:26;;;;;;;26.10;22.17;;;;;;;;;;4937376;29;20640;-66
2023/05/09 03:17:54;;;;;;;29.13;22.43;;;;;;;;;;4949892;29;20633;-63
2023/05/09 03:20:23;;;;;;;23.60;21.20;;;;;;;;;;4951031;29;20632;-63
2023/05/09 03:22:52;;;;;;;21.37;19.07;;;;;;;;;;4934383;29;20627;-64
2023/05/09 03:25:21;;;;;;;21.93;19.70;;;;;;;;;;4920557;29;20707;-64
2023/05/09 03:27:49;;;;;;;20.53;18.43;;;;;;;;;;4920468;29;20621;-64
2023/05/09 03:30:19;;;;;;;21.37;19.23;;;;;;;;;;4937371;29;21190;-63
2023/05/09 03:32:49;;;;;;;20.53;18.43;;;;;;;;;;4936747;29;21133;-63
2023/05/09 03:35:18;;;;;;;19.70;17.80;;;;;;;;;;4937389;29;20620;-64
2023/05/09 03:37:46;;;;;;;19.27;17.40;;;;;;;;;;4937293;29;20693;-65
2023/05/09 03:40:14;;;;;;;21.50;19.20;;;;;;;;;;4935587;29;20620;-64
2023/05/09 03:42:50;;;;;;;20.93;18.30;;;;;;;;;;4901518;29;20566;-63
2023/05/09 03:45:19;;;;;;;21.23;19.03;;;;;;;;;;4901693;29;20600;-65
2023/05/09 03:47:49;;;;;;;23.43;20.97;;;;;;;;;;4918620;29;20651;-63
2023/05/09 03:50:17;;;;;;;20.90;18.90;;;;;;;;;;4901018;29;21014;-64
2023/05/09 03:52:46;;;;;;;22.00;19.77;;;;;;;;;;4901181;29;20667;-64
2023/05/09 03:55:17;;;;;;;21.83;19.27;;;;;;;;;;4900968;29;20585;-65
2023/05/09 03:57:45;;;;;;;25.20;20.20;;;;;;;;;;4904351;29;20608;-65
2023/05/09 04:00:14;;;;;;;23.27;20.77;;;;;;;;;;4919381;29;20712;-64
2023/05/09 04:02:44;;;;;;;21.87;19.63;;;;;;;;;;4936767;29;20723;-65
2023/05/09 04:05:21;;;;;;;22.27;19.97;;;;;;;;;;4933985;29;20613;-64
2023/05/09 04:07:50;;;;;;;22.97;19.93;;;;;;;;;;4941190;29;21230;-63
2023/05/09 04:10:19;;;;;;;21.93;19.63;;;;;;;;;;4939010;29;20640;-64
2023/05/09 04:12:47;;;;;;;21.50;19.10;;;;;;;;;;4941047;29;20683;-64
2023/05/09 04:15:18;;;;;;;22.17;19.80;;;;;;;;;;4939441;29;20559;-64
2023/05/09 04:17:48;;;;;;;21.67;19.50;;;;;;;;;;4946193;29;20700;-68
2023/05/09 04:20:16;;;;;;;24.77;20.70;;;;;;;;;;4946481;29;20693;-67
2023/05/09 04:22:45;;;;;;;23.43;20.33;;;;;;;;;;4931439;29;20696;-68
2023/05/09 04:25:14;;;;;;;20.67;18.70;;;;;;;;;;4932345;29;20711;-68
2023/05/09 04:27:43;;;;;;;21.30;19.00;;;;;;;;;;4947101;29;20684;-68
2023/05/09 04:30:12;;;;;;;21.53;19.33;;;;;;;;;;4932003;29;20696;-68
2023/05/09 04:32:44;;;;;;;20.90;18.70;;;;;;;;;;4940944;29;20728;-67
2023/05/09 04:35:14;;;;;;;18.40;16.60;;;;;;;;;;4947545;29;21055;-68
2023/05/09 04:37:46;;;;;;;21.00;18.80;;;;;;;;;;4930267;29;20668;-68
2023/05/09 04:40:14;;;;;;;21.30;19.10;;;;;;;;;;4932455;29;20682;-68
2023/05/09 04:42:50;;;;;;;23.17;20.87;;;;;;;;;;4933998;29;20698;-68
2023/05/09 04:45:20;;;;;;;21.50;19.30;;;;;;;;;;4933450;29;20608;-68
2023/05/09 04:47:49;;;;;;;22.37;20.07;;;;;;;;;;4933479;29;20817;-68
2023/05/09 04:50:19;;;;;;;23.90;21.17;;;;;;;;;;4944828;29;20713;-68
2023/05/09 04:52:47;;;;;;;22.87;20.47;;;;;;;;;;4927466;29;20725;-67
2023/05/09 04:55:16;;;;;;;22.83;20.30;;;;;;;;;;4926744;29;20692;-66
2023/05/09 04:57:48;;;;;;;22.37;19.80;;;;;;;;;;4909692;29;20710;-66
2023/05/09 05:00:17;;;;;;;22.30;19.90;;;;;;;;;;4928416;29;20704;-66
2023/05/09 05:02:47;;;;;;;22.13;19.83;;;;;;;;;;4913575;29;20662;-66
2023/05/09 05:05:16;;;;;;;21.17;19.00;;;;;;;;;;4943988;29;20670;-66
2023/05/09 05:07:46;;;;;;;22.23;19.87;;;;;;;;;;4944578;29;21018;-66
2023/05/09 05:10:20;;;;;;;21.27;19.07;;;;;;;;;;4938694;29;21305;-67
2023/05/09 05:12:53;;;;;;;24.43;18.23;;;;;;;;;;4929315;29;20652;-67
2023/05/09 05:15:22;;;;;;;23.70;19.60;;;;;;;;;;4934732;29;20723;-67
2023/05/09 05:17:51;;;;;;;21.20;19.00;;;;;;;;;;4950252;28;20620;-67
2023/05/09 05:20:23;;;;;;;19.73;17.83;;;;;;;;;;4937532;29;20774;-66
2023/05/09 05:22:53;;;;;;;19.60;17.50;;;;;;;;;;4935218;29;20697;-67
2023/05/09 05:25:22;;;;;;;20.87;18.80;;;;;;;;;;4919855;29;20678;-67
2023/05/09 05:27:53;;;;;;;20.47;18.53;;;;;;;;;;4933825;29;20671;-66
2023/05/09 05:30:21;;;;;;;20.27;18.17;;;;;;;;;;4951744;29;20779;-66
2023/05/09 05:32:50;;;;;;;20.33;18.30;;;;;;;;;;4941546;29;20678;-68
2023/05/09 05:35:22;;;;;;;21.00;18.10;;;;;;;;;;4926945;29;20735;-67
2023/05/09 05:37:53;;;;;;;18.10;16.30;;;;;;;;;;4947258;29;21172;-67
2023/05/09 05:40:22;;;;;;;19.53;17.43;;;;;;;;;;4944089;29;21009;-68
2023/05/09 05:42:53;;;;;;;20.50;18.30;;;;;;;;;;4941758;29;21277;-67
2023/05/09 05:45:21;;;;;;;19.67;17.90;;;;;;;;;;4940576;29;20268;-68
2023/05/09 05:47:53;;;;;;;20.53;18.07;;;;;;;;;;4941577;29;20680;-69
2023/05/09 05:50:21;;;;;;;17.20;15.60;;;;;;;;;;4931215;29;20634;-68
2023/05/09 05:52:50;;;;;;;19.17;17.17;;;;;;;;;;4935425;29;21050;-68
2023/05/09 05:55:21;;;;;;;19.87;16.90;;;;;;;;;;4943480;29;20669;-68
2023/05/09 05:57:49;;;;;;;21.27;18.57;;;;;;;;;;4918597;29;20609;-68
2023/05/09 06:00:19;;;;;;;18.47;16.80;;;;;;;;;;4935916;29;21031;-68
2023/05/09 06:03:01;;;;;;;17.70;16.20;;;;;;;;;;4934634;29;20589;-69
2023/05/09 06:05:35;;;;;;;19.37;17.43;;;;;;;;;;4902726;29;20584;-68
2023/05/09 06:08:04;;;;;;;19.47;17.57;;;;;;;;;;4902941;29;20620;-67
2023/05/09 06:10:35;;;;;;;19.23;17.33;;;;;;;;;;4910987;29;20692;-67
2023/05/09 06:13:03;;;;;;;21.87;19.00;;;;;;;;;;4939235;29;20759;-69
2023/05/09 06:15:32;;;;;;;21.17;18.97;;;;;;;;;;4952105;29;20775;-67
2023/05/09 06:18:01;;;;;;;22.83;20.53;;;;;;;;;;4937784;29;20611;-70
2023/05/09 06:20:29;;;;;;;19.30;17.50;;;;;;;;;;4958890;29;20712;-66
2023/05/09 06:22:57;;;;;;;21.07;18.87;;;;;;;;;;4945460;29;21130;-67
2023/05/09 06:25:25;;;;;;;23.00;19.43;;;;;;;;;;4932125;29;20892;-69
2023/05/09 06:27:55;;;;;;;21.37;19.00;;;;;;;;;;4939120;29;21025;-69
2023/05/09 06:30:23;;;;;;;22.17;19.87;;;;;;;;;;4941913;29;20767;-67
2023/05/09 06:32:51;;;;;;;20.57;18.57;;;;;;;;;;4938558;29;20617;-68
2023/05/09 06:35:20;;;;;;;22.70;20.50;;;;;;;;;;4938668;29;20664;-69
2023/05/09 06:37:48;;;;;;;24.30;19.40;;;;;;;;;;4939262;29;20759;-68
2023/05/09 06:40:16;;;;;;;25.33;19.33;;;;;;;;;;4941978;29;20700;-67
2023/05/09 06:42:44;;;;;;;20.40;17.80;;;;;;;;;;4939030;29;20700;-67
2023/05/09 06:45:14;;;;;;;22.67;19.50;;;;;;;;;;4943838;29;20707;-66
2023/05/09 06:47:42;;;;;;;20.67;18.67;;;;;;;;;;4936068;29;20724;-67
2023/05/09 06:50:11;;;;;;;20.47;18.53;;;;;;;;;;4941133;29;20720;-67
2023/05/09 06:52:39;;;;;;;23.33;20.83;;;;;;;;;;4939032;29;20711;-68
2023/05/09 06:55:08;;;;;;;23.37;20.27;;;;;;;;;;4944565;29;20720;-68
2023/05/09 06:57:36;;;;;;;24.23;21.77;;;;;;;;;;4949798;29;20664;-67
2023/05/09 07:00:05;;;;;;;20.97;19.07;;;;;;;;;;4950954;29;20657;-67
2023/05/09 07:02:34;;;;;;;21.57;19.00;;;;;;;;;;4944167;29;20716;-68
2023/05/09 07:05:03;;;;;;;21.63;19.13;;;;;;;;;;4942145;29;20716;-68
2023/05/09 07:07:31;;;;;;;20.73;18.87;;;;;;;;;;4946838;29;21250;-69
2023/05/09 07:10:02;;;;;;;22.90;20.23;;;;;;;;;;4927448;29;20768;-69
2023/05/09 07:12:31;;;;;;;23.03;20.80;;;;;;;;;;4941010;29;20668;-70
2023/05/09 07:14:59;;;;;;;22.33;20.23;;;;;;;;;;4937511;29;20701;-69
2023/05/09 07:17:28;;;;;;;22.30;19.90;;;;;;;;;;4927342;29;20677;-72
2023/05/09 07:19:58;;;;;;;22.37;20.13;;;;;;;;;;4945192;29;20744;-69
2023/05/09 07:22:26;;;;;;;22.87;20.67;;;;;;;;;;4946883;29;20696;-67
2023/05/09 07:24:55;;;;;;;22.40;20.20;;;;;;;;;;4941129;29;20637;-68
2023/05/09 07:27:23;;;;;;;26.83;21.90;;;;;;;;;;4947503;29;20688;-69
2023/05/09 07:29:51;;;;;;;23.30;20.90;;;;;;;;;;4927907;29;20739;-68
2023/05/09 07:32:20;;;;;;;24.13;21.80;;;;;;;;;;4933099;29;20715;-70
2023/05/09 07:34:48;;;;;;;24.10;21.80;;;;;;;;;;4941603;29;20759;-68
2023/05/09 07:37:18;;;;;;;24.90;22.40;;;;;;;;;;4933230;29;20838;-68
2023/05/09 07:39:47;;;;;;;23.67;21.27;;;;;;;;;;4942923;29;20740;-68
2023/05/09 07:42:15;;;;;;;26.10;22.83;;;;;;;;;;4930147;29;20705;-69
2023/05/09 07:44:44;;;;;;;29.17;26.03;;;;;;;;;;4954512;29;21105;-69
2023/05/09 07:47:12;;;;;;;28.17;25.07;;;;;;;;;;4946356;29;20718;-71
2023/05/09 07:49:42;;;;;;;25.30;22.70;;;;;;;;;;4943931;29;20656;-70
2023/05/09 07:52:10;;;;;;;25.57;23.10;;;;;;;;;;4934535;29;20979;-71
2023/05/09 07:54:40;;;;;;;25.43;22.83;;;;;;;;;;4941795;29;20638;-69
2023/05/09 07:57:08;;;;;;;32.20;22.13;;;;;;;;;;4949618;29;20725;-68
2023/05/09 07:59:36;;;;;;;27.97;21.90;;;;;;;;;;4948609;29;20716;-69
2023/05/09 08:02:05;;;;;;;24.13;21.47;;;;;;;;;;4940711;29;20698;-69
2023/05/09 08:04:36;;;;;;;23.73;21.30;;;;;;;;;;4937130;29;20775;-70
2023/05/09 08:07:05;;;;;;;21.37;19.27;;;;;;;;;;4940420;29;21094;-68
2023/05/09 08:09:33;;;;;;;21.73;19.57;;;;;;;;;;4931849;29;20664;-68
2023/05/09 08:12:02;;;;;;;19.60;17.70;;;;;;;;;;4942431;29;20723;-68
2023/05/09 08:14:31;;;;;;;20.73;18.87;;;;;;;;;;4942978;29;20719;-68
2023/05/09 08:16:59;;;;;;;19.20;17.30;;;;;;;;;;4931037;29;20707;-68
2023/05/09 08:19:27;;;;;;;19.53;17.53;;;;;;;;;;4941606;29;20632;-67
2023/05/09 08:21:57;;;;;;;21.27;19.27;;;;;;;;;;4941762;29;21190;-69
2023/05/09 08:24:25;;;;;;;19.20;17.30;;;;;;;;;;4926392;29;21033;-67
2023/05/09 08:26:54;;;;;;;21.37;17.57;;;;;;;;;;4947534;29;21067;-67
2023/05/09 08:29:23;;;;;;;19.40;17.33;;;;;;;;;;4949203;29;20692;-67
2023/05/09 08:31:51;;;;;;;19.40;17.50;;;;;;;;;;4950860;29;20699;-68
2023/05/09 08:34:21;;;;;;;18.90;17.00;;;;;;;;;;4949605;29;20708;-69
2023/05/09 08:36:49;;;;;;;19.40;17.60;;;;;;;;;;4948584;29;20723;-66
2023/05/09 08:39:18;;;;;;;19.97;18.23;;;;;;;;;;4955373;29;20659;-67
2023/05/09 08:41:46;;;;;;;18.50;16.90;;;;;;;;;;4936796;29;20732;-68
2023/05/09 08:44:15;;;;;;;19.47;17.37;;;;;;;;;;4950348;29;21254;-67
2023/05/09 08:46:45;;;;;;;18.00;16.30;;;;;;;;;;4950732;29;20759;-68
2023/05/09 08:49:13;;;;;;;17.33;15.73;;;;;;;;;;4946878;29;20699;-69
2023/05/09 08:51:41;;;;;;;17.87;15.77;;;;;;;;;;4941207;29;21099;-68
2023/05/09 08:54:10;;;;;;;16.80;15.20;;;;;;;;;;4943497;29;20695;-68
2023/05/09 08:56:39;;;;;;;17.33;15.77;;;;;;;;;;4938565;29;21297;-68
2023/05/09 08:59:07;;;;;;;16.80;15.30;;;;;;;;;;4942236;29;20724;-68
2023/05/09 09:01:35;;;;;;;17.60;15.80;;;;;;;;;;4944208;29;20731;-68
2023/05/09 09:04:06;;;;;;;16.70;15.27;;;;;;;;;;4943146;29;20736;-68
2023/05/09 09:06:35;;;;;;;17.40;15.03;;;;;;;;;;4946494;29;20636;-66
2023/05/09 09:09:04;;;;;;;17.13;15.63;;;;;;;;;;4945977;29;20692;-68
2023/05/09 09:11:33;;;;;;;15.30;14.00;;;;;;;;;;4948600;29;20687;-67
2023/05/09 09:14:02;;;;;;;15.17;13.87;;;;;;;;;;4941899;29;20776;-67
2023/05/09 09:16:30;;;;;;;14.50;13.20;;;;;;;;;;4954005;29;20684;-68
2023/05/09 09:18:59;;;;;;;15.20;13.60;;;;;;;;;;4951216;29;20700;-69
2023/05/09 09:21:29;;;;;;;15.93;13.83;;;;;;;;;;4946735;29;20747;-68
2023/05/09 09:23:57;;;;;;;12.87;11.87;;;;;;;;;;4945874;29;20708;-67
2023/05/09 09:26:28;;;;;;;13.77;12.47;;;;;;;;;;4941909;29;20700;-67
2023/05/09 09:28:56;;;;;;;13.60;12.47;;;;;;;;;;4941870;29;20680;-68
2023/05/09 09:31:26;;;;;;;14.77;13.47;;;;;;;;;;4946268;29;20700;-68
2023/05/09 09:34:00;;;;;;;15.20;13.67;;;;;;;;;;4928656;29;20643;-67
2023/05/09 09:36:31;;;;;;;13.97;12.77;;;;;;;;;;4939464;29;20617;-65
2023/05/09 09:39:00;;;;;;;16.43;14.93;;;;;;;;;;4946289;29;20748;-65
2023/05/09 09:41:32;;;;;;;15.63;14.27;;;;;;;;;;4942078;29;20732;-67
2023/05/09 09:44:06;;;;;;;16.20;14.47;;;;;;;;;;4950310;29;20866;-68
2023/05/09 09:46:45;;;;;;;15.37;13.87;;;;;;;;;;4946180;29;21233;-68
2023/05/09 09:49:13;;;;;;;14.90;13.47;;;;;;;;;;4941133;29;20635;-69
2023/05/09 09:51:43;;;;;;;15.33;14.03;;;;;;;;;;4940188;29;20775;-68
2023/05/09 09:54:12;;;;;;;16.63;14.93;;;;;;;;;;4935842;29;21117;-67
2023/05/09 09:56:42;;;;;;;14.97;13.57;;;;;;;;;;4927750;29;20774;-68
2023/05/09 09:59:11;;;;;;;14.90;13.60;;;;;;;;;;4933717;29;20631;-68
2023/05/09 10:02:06;;;;;;;14.30;13.13;;;;;;;;;;4942972;29;20723;-67
2023/05/09 10:04:36;;;;;;;14.63;13.33;;;;;;;;;;4919112;29;21290;-67
2023/05/09 10:07:06;;;;;;;14.00;12.70;;;;;;;;;;4941074;29;20756;-68
2023/05/09 10:09:36;;;;;;;14.03;12.83;;;;;;;;;;4945307;29;20815;-68
2023/05/09 10:12:06;;;;;;;15.90;14.30;;;;;;;;;;4946186;29;20695;-68
2023/05/09 10:14:36;;;;;;;14.30;13.20;;;;;;;;;;4946923;29;21047;-68
2023/05/09 10:17:05;;;;;;;13.90;12.33;;;;;;;;;;4944075;29;20756;-68
2023/05/09 10:19:33;;;;;;;13.67;12.57;;;;;;;;;;4939565;29;20695;-67
2023/05/09 10:22:04;;;;;;;14.87;13.47;;;;;;;;;;4938660;29;20647;-66
2023/05/09 10:24:35;;;;;;;14.23;13.03;;;;;;;;;;4940947;29;20656;-67
2023/05/09 10:27:04;;;;;;;15.37;13.77;;;;;;;;;;4944405;29;20712;-67
2023/05/09 10:29:35;;;;;;;15.83;14.40;;;;;;;;;;4944642;29;20688;-67
2023/05/09 10:32:07;;;;;;;16.07;14.43;;;;;;;;;;4944608;29;20684;-66
2023/05/09 10:34:38;;;;;;;15.90;14.40;;;;;;;;;;4945049;29;21096;-67
2023/05/09 10:37:08;;;;;;;16.70;15.20;;;;;;;;;;4935064;29;20743;-67
2023/05/09 10:39:38;;;;;;;15.30;13.80;;;;;;;;;;4939986;29;20727;-67
2023/05/09 10:42:08;;;;;;;17.20;15.53;;;;;;;;;;4941621;29;20705;-65
2023/05/09 10:44:36;;;;;;;15.63;14.23;;;;;;;;;;4942496;29;20715;-65
2023/05/09 10:47:05;;;;;;;13.43;12.23;;;;;;;;;;4935590;29;20708;-67
2023/05/09 10:49:33;;;;;;;14.07;12.73;;;;;;;;;;4943089;29;20716;-67
2023/05/09 10:52:01;;;;;;;14.80;13.47;;;;;;;;;;4926900;29;21313;-66
2023/05/09 10:54:32;;;;;;;17.13;15.33;;;;;;;;;;4943678;29;20713;-67
2023/05/09 10:57:02;;;;;;;15.80;14.43;;;;;;;;;;4942512;29;20735;-67
2023/05/09 10:59:35;;;;;;;14.87;13.30;;;;;;;;;;4940225;29;21037;-67
2023/05/09 11:02:04;;;;;;;12.37;11.37;;;;;;;;;;4938662;29;20716;-67
2023/05/09 11:04:32;;;;;;;12.23;11.23;;;;;;;;;;4937240;29;20712;-67
2023/05/09 11:07:01;;;;;;;9.33;8.63;;;;;;;;;;4936993;29;20617;-66
2023/05/09 11:09:31;;;;;;;10.87;9.87;;;;;;;;;;4938746;29;20743;-66
2023/05/09 11:12:10;;;;;;;10.87;9.97;;;;;;;;;;4939124;29;20691;-66
2023/05/09 11:14:40;;;;;;;10.43;9.40;;;;;;;;;;4937559;29;20609;-65
2023/05/09 11:17:09;;;;;;;10.80;9.90;;;;;;;;;;4935824;29;20672;-66
2023/05/09 11:19:38;;;;;;;11.23;10.30;;;;;;;;;;4938850;29;20644;-66
2023/05/09 11:22:13;;;;;;;9.90;9.00;;;;;;;;;;4937324;29;20784;-66
2023/05/09 11:24:46;;;;;;;12.77;11.77;;;;;;;;;;4938375;29;20713;-66
2023/05/09 11:27:20;;;;;;;11.43;10.50;;;;;;;;;;4927960;29;20704;-66
2023/05/09 11:29:51;;;;;;;11.37;10.30;;;;;;;;;;4911364;29;20636;-67
2023/05/09 11:32:20;;;;;;;11.60;10.70;;;;;;;;;;4935612;29;20776;-66
2023/05/09 11:34:50;;;;;;;11.03;10.23;;;;;;;;;;4935155;29;21230;-66
2023/05/09 11:37:19;;;;;;;11.63;10.80;;;;;;;;;;4939345;29;20766;-66
2023/05/09 11:39:57;;;;;;;11.70;10.70;;;;;;;;;;4939998;29;20719;-66
2023/05/09 11:42:28;;;;;;;11.63;10.67;;;;;;;;;;4935024;29;20628;-67
2023/05/09 11:44:57;;;;;;;12.47;11.27;;;;;;;;;;4932882;29;20632;-69
2023/05/09 11:47:27;;;;;;;11.60;10.60;;;;;;;;;;4936390;29;21355;-66
2023/05/09 11:49:55;;;;;;;12.40;11.40;;;;;;;;;;4941770;29;20711;-65
2023/05/09 11:52:24;;;;;;;12.10;11.07;;;;;;;;;;4939222;29;20684;-66
2023/05/09 11:54:52;;;;;;;12.13;11.10;;;;;;;;;;4939374;29;20727;-65
2023/05/09 11:57:21;;;;;;;11.93;11.00;;;;;;;;;;4938547;29;20868;-65
2023/05/09 11:59:50;;;;;;;10.80;9.70;;;;;;;;;;4940313;29;20699;-65
2023/05/09 12:02:18;;;;;;;13.57;12.17;;;;;;;;;;4939841;29;21282;-65
2023/05/09 12:04:47;;;;;;;10.60;9.80;;;;;;;;;;4940501;29;20695;-64
2023/05/09 12:07:17;;;;;;;11.77;10.57;;;;;;;;;;4940719;29;20723;-65
2023/05/09 12:09:45;;;;;;;10.37;9.57;;;;;;;;;;4933151;29;20748;-66
2023/05/09 12:12:14;;;;;;;10.87;9.87;;;;;;;;;;4942000;29;20696;-66
2023/05/09 12:14:42;;;;;;;11.30;10.13;;;;;;;;;;4940622;29;20724;-66
2023/05/09 12:17:11;;;;;;;10.57;9.70;;;;;;;;;;4935610;29;20667;-65
2023/05/09 12:19:40;;;;;;;10.10;9.03;;;;;;;;;;4935846;29;20700;-67
2023/05/09 12:22:08;;;;;;;10.20;9.30;;;;;;;;;;4937823;29;20719;-66
2023/05/09 12:24:37;;;;;;;10.40;9.50;;;;;;;;;;4926951;29;20696;-65
2023/05/09 12:27:06;;;;;;;10.63;9.63;;;;;;;;;;4941580;29;20699;-64
2023/05/09 12:29:35;;;;;;;11.00;10.20;;;;;;;;;;4926796;29;20699;-65
2023/05/09 12:32:03;;;;;;;11.07;9.70;;;;;;;;;;4943128;29;20715;-68
2023/05/09 12:34:33;;;;;;;10.10;9.10;;;;;;;;;;4937641;29;20644;-68
2023/05/09 12:37:02;;;;;;;9.93;9.00;;;;;;;;;;4937033;29;20660;-67
2023/05/09 12:39:30;;;;;;;8.97;8.23;;;;;;;;;;4937777;29;20651;-66
2023/05/09 12:41:58;;;;;;;7.37;6.93;;;;;;;;;;4939510;29;20719;-67
2023/05/09 12:44:28;;;;;;;9.17;8.37;;;;;;;;;;4933030;29;20696;-66
2023/05/09 12:46:57;;;;;;;7.80;7.20;;;;;;;;;;4937853;29;20632;-67
2023/05/09 12:49:25;;;;;;;9.20;8.60;;;;;;;;;;4934181;29;20640;-68
2023/05/09 12:51:56;;;;;;;9.10;8.23;;;;;;;;;;4935390;29;20652;-67
2023/05/09 12:54:24;;;;;;;8.70;7.90;;;;;;;;;;4934975;29;21028;-68
2023/05/09 12:56:55;;;;;;;7.70;7.10;;;;;;;;;;4921543;29;21015;-68
2023/05/09 12:59:24;;;;;;;7.90;7.40;;;;;;;;;;4934162;29;20691;-69
2023/05/09 13:01:54;;;;;;;7.53;6.90;;;;;;;;;;4934730;29;20650;-68
2023/05/09 13:04:22;;;;;;;11.57;7.03;;;;;;;;;;4943506;29;20626;-68
2023/05/09 13:06:52;;;;;;;7.10;6.40;;;;;;;;;;4938700;29;20626;-68
2023/05/09 13:09:22;;;;;;;6.80;6.30;;;;;;;;;;4935266;29;20668;-68
2023/05/09 13:11:50;;;;;;;7.03;6.40;;;;;;;;;;4932862;29;20711;-67
2023/05/09 13:14:18;;;;;;;6.23;5.80;;;;;;;;;;4937520;29;20630;-67
2023/05/09 13:16:47;;;;;;;8.30;7.70;;;;;;;;;;4935434;29;20650;-67
2023/05/09 13:19:15;;;;;;;7.53;6.93;;;;;;;;;;4932904;29;20627;-67
2023/05/09 13:21:43;;;;;;;8.00;7.40;;;;;;;;;;4935267;29;21174;-67
2023/05/09 13:24:12;;;;;;;9.03;8.13;;;;;;;;;;4935240;29;20662;-68
2023/05/09 13:26:41;;;;;;;7.93;7.13;;;;;;;;;;4935995;29;20632;-67
2023/05/09 13:29:09;;;;;;;7.33;6.73;;;;;;;;;;4938866;29;20636;-68
2023/05/09 13:31:38;;;;;;;8.70;8.00;;;;;;;;;;4935919;29;20640;-68
2023/05/09 13:34:06;;;;;;;7.67;7.17;;;;;;;;;;4934881;29;20983;-67
2023/05/09 13:36:34;;;;;;;7.70;7.03;;;;;;;;;;4933705;29;20620;-68
2023/05/09 13:39:02;;;;;;;9.13;8.53;;;;;;;;;;4934739;29;21045;-68
2023/05/09 13:41:32;;;;;;;9.30;8.50;;;;;;;;;;4920042;29;20749;-68
2023/05/09 13:44:02;;;;;;;8.70;7.97;;;;;;;;;;4934392;29;20639;-68
2023/05/09 13:46:30;;;;;;;9.00;8.33;;;;;;;;;;4934694;29;21182;-68
2023/05/09 13:48:59;;;;;;;8.90;8.10;;;;;;;;;;4930378;29;20651;-68
2023/05/09 13:51:27;;;;;;;8.60;7.90;;;;;;;;;;4919967;29;20646;-67
2023/05/09 13:53:56;;;;;;;9.27;8.57;;;;;;;;;;4926607;29;20636;-68
2023/05/09 13:56:25;;;;;;;7.97;7.37;;;;;;;;;;4936999;29;20625;-68
2023/05/09 13:58:53;;;;;;;8.23;7.57;;;;;;;;;;4937202;29;20660;-68
2023/05/09 14:01:22;;;;;;;9.67;8.97;;;;;;;;;;4909971;29;21006;-68
2023/05/09 14:03:51;;;;;;;8.77;8.07;;;;;;;;;;4935154;29;20652;-68
2023/05/09 14:06:19;;;;;;;5.90;5.40;;;;;;;;;;4936308;29;20607;-69
2023/05/09 14:08:47;;;;;;;6.60;6.10;;;;;;;;;;4934145;29;20637;-68
2023/05/09 14:11:16;;;;;;;7.33;6.73;;;;;;;;;;4936231;29;20660;-67
2023/05/09 14:13:44;;;;;;;5.77;5.27;;;;;;;;;;4926416;29;21043;-68
2023/05/09 14:16:12;;;;;;;6.03;5.60;;;;;;;;;;4934578;29;20997;-68
2023/05/09 14:18:42;;;;;;;10.50;6.20;;;;;;;;;;4935874;29;20664;-68
2023/05/09 14:21:10;;;;;;;6.87;6.37;;;;;;;;;;4935721;29;20689;-68
2023/05/09 14:23:38;;;;;;;6.00;5.60;;;;;;;;;;4936317;29;21250;-68
2023/05/09 14:26:07;;;;;;;6.53;6.03;;;;;;;;;;4937014;29;20628;-66
2023/05/09 14:28:36;;;;;;;6.20;5.80;;;;;;;;;;4921723;29;20646;-68
2023/05/09 14:31:04;;;;;;;6.40;6.00;;;;;;;;;;4933775;29;20632;-67
2023/05/09 14:33:34;;;;;;;6.40;5.90;;;;;;;;;;4934585;29;20633;-67